Time;durP1;ratioP1;P1;durP2;ratioP2;P2;SDS_P1;SDS_P2;PMS_P1;PMS_P2;Temp;Humidity;BMP_temperature;BMP_pressure;BME280_temperature;BME280_humidity;BME280_pressure;Samples;Min_cycle;Max_cycle;Signal;HPM_P1;HPM_P2
2021/10/11 00:01:27;;;;;;;4.00;2.07;;;10.50;99.90;;;;;;5024449;28;20187;-68
2021/10/11 00:03:53;;;;;;;3.60;3.00;;;10.60;99.90;;;;;;5015235;28;20222;-68
2021/10/11 00:06:18;;;;;;;5.30;3.63;;;10.60;99.90;;;;;;5032723;28;20636;-69
2021/10/11 00:08:44;;;;;;;5.90;2.70;;;10.60;99.90;;;;;;5020337;28;20176;-70
2021/10/11 00:11:09;;;;;;;7.50;3.23;;;10.60;99.90;;;;;;5027867;28;20200;-68
2021/10/11 00:13:35;;;;;;;3.43;3.07;;;10.70;99.90;;;;;;5026703;28;20304;-68
2021/10/11 00:16:01;;;;;;;7.63;4.30;;;10.70;99.90;;;;;;5013111;28;20179;-69
2021/10/11 00:18:27;;;;;;;2.80;2.60;;;10.70;99.90;;;;;;5013472;28;20188;-69
2021/10/11 00:20:52;;;;;;;7.27;5.10;;;10.70;99.90;;;;;;5013271;28;20423;-69
2021/10/11 00:23:18;;;;;;;3.40;2.27;;;10.70;99.90;;;;;;5012005;28;20191;-69
2021/10/11 00:25:43;;;;;;;17.63;3.83;;;10.70;99.90;;;;;;5012758;28;20214;-69
2021/10/11 00:28:09;;;;;;;2.93;2.20;;;10.70;99.90;;;;;;5012017;28;20180;-69
2021/10/11 00:30:34;;;;;;;2.83;1.67;;;10.60;99.90;;;;;;5020175;28;20691;-70
2021/10/11 00:33:01;;;;;;;4.60;2.13;;;10.60;99.90;;;;;;5016699;28;20176;-69
2021/10/11 00:35:27;;;;;;;5.77;3.03;;;10.50;99.90;;;;;;5012596;28;20176;-69
2021/10/11 00:37:52;;;;;;;5.63;3.93;;;10.40;99.90;;;;;;5011805;28;20415;-68
2021/10/11 00:40:18;;;;;;;2.93;1.97;;;10.40;99.90;;;;;;5014986;28;20431;-69
2021/10/11 00:42:43;;;;;;;4.30;2.87;;;10.30;99.90;;;;;;5031565;28;20183;-69
2021/10/11 00:45:09;;;;;;;7.10;3.10;;;10.20;99.90;;;;;;5012432;28;20665;-70
2021/10/11 00:47:34;;;;;;;3.27;2.10;;;10.20;99.90;;;;;;5012877;28;20294;-68
2021/10/11 00:50:00;;;;;;;10.50;4.37;;;10.10;99.90;;;;;;5012926;28;20210;-68
2021/10/11 00:52:26;;;;;;;9.13;3.00;;;10.10;99.90;;;;;;5016743;28;20175;-69
2021/10/11 00:54:52;;;;;;;3.03;2.83;;;10.00;99.90;;;;;;5018972;28;20286;-68
2021/10/11 00:57:17;;;;;;;3.17;2.83;;;9.90;99.90;;;;;;5016794;28;20530;-69
2021/10/11 00:59:44;;;;;;;0.70;0.60;;;9.90;99.90;;;;;;5024708;28;20172;-68
2021/10/11 01:02:09;;;;;;;1.73;1.63;;;9.90;99.90;;;;;;5023765;28;20230;-70
2021/10/11 01:04:35;;;;;;;3.57;3.07;;;9.90;99.90;;;;;;5011207;28;20928;-68
2021/10/11 01:07:01;;;;;;;5.40;3.43;;;10.10;99.90;;;;;;5012314;28;20212;-68
2021/10/11 01:09:26;;;;;;;3.30;2.70;;;10.10;99.90;;;;;;5020899;28;20188;-68
2021/10/11 01:11:52;;;;;;;5.33;2.50;;;10.20;99.90;;;;;;5012686;28;20258;-69
2021/10/11 01:14:18;;;;;;;4.10;3.70;;;10.20;99.90;;;;;;5012555;28;20279;-70
2021/10/11 01:16:45;;;;;;;6.47;2.97;;;10.30;99.90;;;;;;5014708;28;20175;-70
2021/10/11 01:19:11;;;;;;;4.00;2.50;;;10.30;99.90;;;;;;5029074;28;20429;-69
2021/10/11 01:21:37;;;;;;;1.53;1.10;;;10.30;99.90;;;;;;5012358;28;20514;-69
2021/10/11 01:24:03;;;;;;;2.70;1.83;;;10.30;99.90;;;;;;5012229;28;20450;-70
2021/10/11 01:26:42;;;;;;;4.50;2.60;;;10.30;99.90;;;;;;5013467;28;20667;-70
2021/10/11 01:29:10;;;;;;;13.40;6.90;;;10.40;99.90;;;;;;5012253;28;20637;-69
2021/10/11 01:31:37;;;;;;;4.63;3.20;;;10.40;99.90;;;;;;5013231;28;20466;-69
2021/10/11 01:34:03;;;;;;;4.27;4.07;;;10.40;99.90;;;;;;5010918;28;20443;-69
2021/10/11 01:36:29;;;;;;;8.10;3.10;;;10.50;99.90;;;;;;5012073;28;20917;-69
2021/10/11 01:38:57;;;;;;;5.83;4.00;;;10.50;99.90;;;;;;5012147;28;20829;-69
2021/10/11 01:41:22;;;;;;;7.60;5.40;;;10.60;99.90;;;;;;5010954;28;20917;-69
2021/10/11 01:43:49;;;;;;;4.90;3.47;;;10.60;99.90;;;;;;5016127;28;20433;-69
2021/10/11 01:46:14;;;;;;;2.90;2.70;;;10.70;99.90;;;;;;5020271;28;20681;-70
2021/10/11 01:48:40;;;;;;;4.10;2.93;;;10.70;99.90;;;;;;5016103;28;20469;-71
2021/10/11 01:51:06;;;;;;;7.27;3.27;;;10.80;99.90;;;;;;5035388;28;20951;-70
2021/10/11 01:53:31;;;;;;;5.13;3.50;;;10.80;99.90;;;;;;5019522;28;20207;-70
2021/10/11 01:55:57;;;;;;;6.57;5.30;;;10.90;99.90;;;;;;5033850;28;20171;-69
2021/10/11 01:58:23;;;;;;;3.47;3.17;;;11.00;99.90;;;;;;5034128;28;20175;-70
2021/10/11 02:00:48;;;;;;;3.13;2.93;;;11.10;99.90;;;;;;5020335;28;20180;-70
2021/10/11 02:03:14;;;;;;;2.40;2.20;;;11.20;99.90;;;;;;5018526;28;20176;-70
2021/10/11 02:05:39;;;;;;;3.53;3.20;;;11.20;99.90;;;;;;5015508;28;20180;-70
2021/10/11 02:08:05;;;;;;;6.00;2.57;;;11.30;99.90;;;;;;5015771;28;20172;-69
2021/10/11 02:10:30;;;;;;;4.30;4.00;;;11.40;99.90;;;;;;5026279;28;20200;-71
2021/10/11 02:12:58;;;;;;;5.97;2.50;;;11.60;99.90;;;;;;5014474;28;20210;-71
2021/10/11 02:15:25;;;;;;;2.73;2.27;;;11.60;99.90;;;;;;5031457;28;20282;-70
2021/10/11 02:17:51;;;;;;;2.50;2.10;;;11.70;99.90;;;;;;5021029;28;20423;-70
2021/10/11 02:20:16;;;;;;;5.63;5.23;;;11.70;99.90;;;;;;5027007;28;20461;-71
2021/10/11 02:22:42;;;;;;;7.60;6.90;;;11.70;99.90;;;;;;5027358;28;20179;-70
2021/10/11 02:25:08;;;;;;;10.30;4.47;;;11.70;99.90;;;;;;5025333;28;20199;-71
2021/10/11 02:27:34;;;;;;;2.93;2.63;;;11.70;99.90;;;;;;5034937;28;20233;-70
2021/10/11 02:30:00;;;;;;;3.57;3.07;;;11.80;99.90;;;;;;5021090;28;20462;-70
2021/10/11 02:32:26;;;;;;;7.93;3.70;;;11.80;99.90;;;;;;5031802;28;20426;-70
2021/10/11 02:34:51;;;;;;;4.50;4.20;;;11.80;99.90;;;;;;5028565;28;20225;-70
2021/10/11 02:37:17;;;;;;;2.43;2.23;;;11.90;99.90;;;;;;5015704;28;20426;-70
2021/10/11 02:39:42;;;;;;;8.63;7.57;;;11.80;99.90;;;;;;5033353;28;20176;-70
2021/10/11 02:42:08;;;;;;;6.27;5.73;;;11.80;99.90;;;;;;5034037;28;20183;-70
2021/10/11 02:44:33;;;;;;;2.27;2.10;;;11.90;99.90;;;;;;5033623;28;20187;-70
2021/10/11 02:46:59;;;;;;;3.00;2.80;;;11.90;99.90;;;;;;5015160;28;20736;-70
2021/10/11 02:49:25;;;;;;;6.17;5.60;;;11.90;99.90;;;;;;5015046;28;20247;-70
2021/10/11 02:51:50;;;;;;;3.03;2.83;;;11.90;99.90;;;;;;5015995;28;20558;-70
2021/10/11 02:54:17;;;;;;;10.43;5.03;;;11.80;99.90;;;;;;5023819;28;20533;-70
2021/10/11 02:56:45;;;;;;;3.50;3.20;;;11.90;99.90;;;;;;5033551;28;20183;-70
2021/10/11 02:59:11;;;;;;;1.73;1.63;;;11.90;99.90;;;;;;5019053;28;20418;-71
2021/10/11 03:01:37;;;;;;;2.90;2.70;;;11.90;99.90;;;;;;5032278;28;20419;-70
2021/10/11 03:04:03;;;;;;;3.37;3.17;;;11.80;99.90;;;;;;5034514;28;20219;-71
2021/10/11 03:06:29;;;;;;;6.27;5.67;;;11.90;99.90;;;;;;5024407;28;20509;-71
2021/10/11 03:08:55;;;;;;;6.93;4.80;;;11.80;99.90;;;;;;5026408;28;20178;-70
2021/10/11 03:11:20;;;;;;;3.60;3.10;;;11.90;99.90;;;;;;5014985;28;20207;-71
2021/10/11 03:13:46;;;;;;;5.43;4.00;;;11.90;99.90;;;;;;5024146;28;21194;-71
2021/10/11 03:16:12;;;;;;;3.83;3.60;;;11.90;99.90;;;;;;5033843;28;20168;-70
2021/10/11 03:18:37;;;;;;;6.47;4.60;;;11.90;99.90;;;;;;5034544;28;20163;-71
2021/10/11 03:21:03;;;;;;;4.40;4.10;;;11.90;99.90;;;;;;5033994;28;20254;-70
2021/10/11 03:23:28;;;;;;;7.70;4.67;;;11.90;99.90;;;;;;5033783;28;20191;-69
2021/10/11 03:25:54;;;;;;;3.37;3.07;;;11.90;99.90;;;;;;5025282;28;20681;-70
2021/10/11 03:28:19;;;;;;;3.00;2.73;;;11.90;99.90;;;;;;5027895;28;20594;-70
2021/10/11 03:30:47;;;;;;;8.77;4.43;;;11.80;99.90;;;;;;5033712;28;20199;-70
2021/10/11 03:33:12;;;;;;;3.73;3.43;;;11.90;99.90;;;;;;5032174;28;20207;-70
2021/10/11 03:35:38;;;;;;;2.33;2.23;;;12.00;99.90;;;;;;5032790;28;20450;-70
2021/10/11 03:38:04;;;;;;;3.77;1.73;;;12.00;99.90;;;;;;5019936;28;20709;-70
2021/10/11 03:40:29;;;;;;;2.43;2.23;;;12.00;99.90;;;;;;5014124;28;20176;-70
2021/10/11 03:42:55;;;;;;;5.03;3.53;;;12.00;99.90;;;;;;5031611;28;20210;-70
2021/10/11 03:45:20;;;;;;;3.37;2.93;;;12.10;99.90;;;;;;5032232;28;20195;-71
2021/10/11 03:47:46;;;;;;;5.17;3.13;;;12.10;99.90;;;;;;5026389;28;20571;-71
2021/10/11 03:50:12;;;;;;;2.70;2.50;;;12.10;99.90;;;;;;5030492;28;20211;-70
2021/10/11 03:52:37;;;;;;;6.70;6.10;;;12.10;99.90;;;;;;5023629;28;20179;-70
2021/10/11 03:55:03;;;;;;;4.60;3.77;;;12.10;99.90;;;;;;5024643;28;20202;-71
2021/10/11 03:57:29;;;;;;;2.37;1.60;;;12.10;99.90;;;;;;5027989;28;20662;-71
2021/10/11 03:59:54;;;;;;;9.93;1.27;;;12.10;99.90;;;;;;5032820;28;20462;-71
2021/10/11 04:02:20;;;;;;;1.80;1.70;;;12.20;99.90;;;;;;5020880;28;20641;-71
2021/10/11 04:04:46;;;;;;;1.80;1.70;;;12.20;99.90;;;;;;5024979;28;20214;-71
2021/10/11 04:07:13;;;;;;;4.30;4.00;;;12.20;99.90;;;;;;5033190;28;20758;-70
2021/10/11 04:09:41;;;;;;;3.07;2.73;;;12.20;99.90;;;;;;5026445;28;20192;-70
2021/10/11 04:12:16;;;;;;;4.20;1.63;;;12.30;99.90;;;;;;5013707;28;20801;-70
2021/10/11 04:14:42;;;;;;;10.23;2.10;;;12.30;99.90;;;;;;5018242;28;20782;-71
2021/10/11 04:17:07;;;;;;;0.90;0.90;;;12.30;99.90;;;;;;5013251;28;20425;-71
2021/10/11 04:19:33;;;;;;;2.10;2.00;;;12.30;99.90;;;;;;5013469;28;20581;-70
2021/10/11 04:21:58;;;;;;;2.50;1.37;;;12.30;99.90;;;;;;5016062;28;20181;-70
2021/10/11 04:24:24;;;;;;;2.50;2.40;;;12.30;99.90;;;;;;5031435;28;20195;-69
2021/10/11 04:26:49;;;;;;;3.63;2.10;;;12.20;99.90;;;;;;5031426;28;20181;-70
2021/10/11 04:29:15;;;;;;;3.07;2.90;;;12.20;99.90;;;;;;5014852;28;20188;-69
2021/10/11 04:31:40;;;;;;;1.33;0.70;;;12.30;99.90;;;;;;5013060;28;20212;-71
2021/10/11 04:34:06;;;;;;;4.03;2.03;;;12.30;99.90;;;;;;5013272;28;20206;-71
2021/10/11 04:36:32;;;;;;;4.40;4.00;;;12.30;99.90;;;;;;5012944;28;20180;-70
2021/10/11 04:38:57;;;;;;;1.73;1.63;;;12.30;99.90;;;;;;5013037;28;20180;-71
2021/10/11 04:41:23;;;;;;;4.07;3.77;;;12.20;99.90;;;;;;5012334;28;20188;-69
2021/10/11 04:43:49;;;;;;;2.10;1.50;;;12.20;99.90;;;;;;5029668;28;20199;-69
2021/10/11 04:46:15;;;;;;;4.97;4.47;;;12.20;99.90;;;;;;5031637;28;20176;-70
2021/10/11 04:48:41;;;;;;;3.40;3.20;;;12.20;99.90;;;;;;5031579;28;20422;-70
2021/10/11 04:51:06;;;;;;;1.47;1.37;;;12.20;99.90;;;;;;5031769;28;20239;-70
2021/10/11 04:53:32;;;;;;;1.60;1.50;;;12.20;99.90;;;;;;5030863;28;20191;-70
2021/10/11 04:55:57;;;;;;;5.70;4.10;;;12.20;99.90;;;;;;5026616;28;20251;-70
2021/10/11 04:58:24;;;;;;;3.83;2.60;;;12.30;99.90;;;;;;5013099;28;20191;-71
2021/10/11 05:00:50;;;;;;;3.47;1.73;;;12.20;99.90;;;;;;5017790;28;20175;-71
2021/10/11 05:03:15;;;;;;;10.03;4.57;;;12.20;99.90;;;;;;5030532;28;20430;-71
2021/10/11 05:05:41;;;;;;;1.53;1.43;;;12.20;99.90;;;;;;5027429;28;20186;-71
2021/10/11 05:08:06;;;;;;;4.50;4.03;;;12.20;99.90;;;;;;5012576;28;20181;-70
2021/10/11 05:10:32;;;;;;;1.97;1.80;;;12.20;99.90;;;;;;5012537;28;20204;-70
2021/10/11 05:12:58;;;;;;;4.33;2.30;;;12.20;99.90;;;;;;5012684;28;20196;-70
2021/10/11 05:15:24;;;;;;;4.40;4.00;;;12.20;99.90;;;;;;5013258;28;20196;-71
2021/10/11 05:17:49;;;;;;;2.73;1.43;;;12.30;99.90;;;;;;5015998;28;20171;-71
2021/10/11 05:20:15;;;;;;;3.73;2.20;;;12.30;99.90;;;;;;5016464;28;20214;-70
2021/10/11 05:22:41;;;;;;;2.50;1.37;;;12.30;99.90;;;;;;5024126;28;20257;-70
2021/10/11 05:25:08;;;;;;;3.80;3.63;;;12.30;99.90;;;;;;5027540;28;20889;-70
2021/10/11 05:27:34;;;;;;;3.80;2.30;;;12.30;99.90;;;;;;5012367;28;20191;-69
2021/10/11 05:29:59;;;;;;;3.60;2.73;;;12.30;99.90;;;;;;5012143;28;20411;-71
2021/10/11 05:32:27;;;;;;;2.40;2.10;;;12.20;99.90;;;;;;5012488;28;20187;-71
2021/10/11 05:34:54;;;;;;;3.03;2.47;;;12.30;99.90;;;;;;5013393;28;20188;-71
2021/10/11 05:37:19;;;;;;;2.33;2.03;;;12.30;99.90;;;;;;5010993;28;20561;-70
2021/10/11 05:39:45;;;;;;;2.50;1.77;;;12.30;99.90;;;;;;5026013;28;20508;-71
2021/10/11 05:42:10;;;;;;;7.90;2.87;;;12.30;99.90;;;;;;5031479;28;20265;-70
2021/10/11 05:44:37;;;;;;;1.30;1.20;;;12.30;99.90;;;;;;5019982;28;20248;-71
2021/10/11 05:47:03;;;;;;;2.80;2.23;;;12.30;99.90;;;;;;5012930;28;20176;-69
2021/10/11 05:49:29;;;;;;;2.30;1.30;;;12.40;99.90;;;;;;5012105;28;20485;-71
2021/10/11 05:51:55;;;;;;;1.00;0.90;;;12.40;99.90;;;;;;5018286;28;20458;-70
2021/10/11 05:54:20;;;;;;;7.23;3.27;;;12.30;99.90;;;;;;5031138;28;20482;-70
2021/10/11 05:56:46;;;;;;;6.03;3.43;;;12.40;99.90;;;;;;5031534;28;20215;-69
2021/10/11 05:59:12;;;;;;;2.33;2.13;;;12.40;99.90;;;;;;5015663;28;20176;-71
2021/10/11 06:01:37;;;;;;;4.30;1.47;;;12.50;99.90;;;;;;5013318;28;20176;-71
2021/10/11 06:04:03;;;;;;;0.83;0.73;;;12.40;99.90;;;;;;5011781;28;20196;-70
2021/10/11 06:06:29;;;;;;;2.37;1.23;;;12.50;99.90;;;;;;5024446;28;20214;-70
2021/10/11 06:08:54;;;;;;;2.50;2.30;;;12.40;99.90;;;;;;5031654;28;20179;-71
2021/10/11 06:11:20;;;;;;;1.63;1.50;;;12.50;99.90;;;;;;5031238;28;20207;-71
2021/10/11 06:13:46;;;;;;;1.37;1.00;;;12.50;99.90;;;;;;5014284;28;20203;-70
2021/10/11 06:16:12;;;;;;;11.60;1.90;;;12.60;99.90;;;;;;5019614;28;20449;-70
2021/10/11 06:18:38;;;;;;;0.80;0.60;;;12.70;99.90;;;;;;5031364;28;20414;-70
2021/10/11 06:21:04;;;;;;;0.80;0.60;;;12.60;99.90;;;;;;5031707;28;20410;-71
2021/10/11 06:23:29;;;;;;;0.70;0.50;;;12.60;99.90;;;;;;5028076;28;20230;-71
2021/10/11 06:25:55;;;;;;;2.67;1.13;;;12.60;99.90;;;;;;5019054;28;20452;-71
2021/10/11 06:28:21;;;;;;;0.70;0.60;;;12.60;99.90;;;;;;5025450;28;20184;-71
2021/10/11 06:30:47;;;;;;;0.70;0.70;;;12.60;99.90;;;;;;5035205;28;20265;-71
2021/10/11 06:33:13;;;;;;;2.93;1.90;;;12.60;99.90;;;;;;5033799;28;20410;-71
2021/10/11 06:35:39;;;;;;;4.87;1.07;;;12.60;99.90;;;;;;5019260;28;20259;-69
2021/10/11 06:38:04;;;;;;;3.17;2.93;;;12.60;99.90;;;;;;5015182;28;20550;-70
2021/10/11 06:40:30;;;;;;;0.70;0.60;;;12.60;99.90;;;;;;5015263;28;20657;-70
2021/10/11 06:42:56;;;;;;;3.33;2.97;;;12.70;99.90;;;;;;5016285;28;20340;-71
2021/10/11 06:45:22;;;;;;;1.90;1.77;;;12.60;99.90;;;;;;5030560;28;20441;-68
2021/10/11 06:47:47;;;;;;;8.13;1.53;;;12.70;99.90;;;;;;5013817;28;20184;-71
2021/10/11 06:50:13;;;;;;;8.23;1.50;;;12.70;99.90;;;;;;5015475;28;20256;-71
2021/10/11 06:52:39;;;;;;;1.73;1.63;;;12.70;99.90;;;;;;5014899;28;20187;-70
2021/10/11 06:55:05;;;;;;;0.73;0.57;;;12.70;99.90;;;;;;5014664;28;20450;-70
2021/10/11 06:57:30;;;;;;;0.83;0.73;;;12.80;99.90;;;;;;5027793;28;20552;-69
2021/10/11 06:59:56;;;;;;;1.70;1.23;;;12.80;99.90;;;;;;5017502;28;20430;-69
2021/10/11 07:02:21;;;;;;;3.37;0.87;;;12.80;99.90;;;;;;5013637;28;20251;-69
2021/10/11 07:04:47;;;;;;;2.50;1.37;;;12.80;99.90;;;;;;5015618;28;20198;-69
2021/10/11 07:07:12;;;;;;;1.57;1.47;;;12.80;99.90;;;;;;5015779;28;20168;-71
2021/10/11 07:09:38;;;;;;;1.13;1.03;;;12.80;99.90;;;;;;5027051;28;20262;-71
2021/10/11 07:12:04;;;;;;;1.00;0.90;;;12.90;99.90;;;;;;5030312;28;20200;-69
2021/10/11 07:14:30;;;;;;;0.80;0.80;;;13.00;99.90;;;;;;5014365;28;20203;-70
2021/10/11 07:16:55;;;;;;;1.17;0.60;;;13.00;99.90;;;;;;5014335;28;20419;-71
2021/10/11 07:19:21;;;;;;;0.70;0.50;;;13.10;99.90;;;;;;5015058;28;20176;-70
2021/10/11 07:21:46;;;;;;;1.30;1.20;;;13.10;99.90;;;;;;5014479;28;20284;-69
2021/10/11 07:24:14;;;;;;;0.80;0.60;;;13.20;99.90;;;;;;5014313;28;20196;-71
2021/10/11 07:26:40;;;;;;;1.07;0.83;;;13.20;99.90;;;;;;5013955;28;20184;-71
2021/10/11 07:29:06;;;;;;;1.17;1.07;;;13.30;99.90;;;;;;5023270;28;20469;-71
2021/10/11 07:31:32;;;;;;;1.50;1.17;;;13.40;99.90;;;;;;5031968;28;20987;-70
2021/10/11 07:33:57;;;;;;;2.93;1.63;;;13.40;99.90;;;;;;5033046;28;20278;-71
2021/10/11 07:36:23;;;;;;;1.10;0.80;;;13.40;99.90;;;;;;5032744;28;20521;-71
2021/10/11 07:38:48;;;;;;;2.10;1.73;;;13.50;99.90;;;;;;5034026;28;20238;-72
2021/10/11 07:41:14;;;;;;;0.80;0.70;;;13.60;99.90;;;;;;5032352;28;20186;-71
2021/10/11 07:43:39;;;;;;;0.80;0.70;;;13.80;99.90;;;;;;5028073;28;20196;-70
2021/10/11 07:46:05;;;;;;;0.70;0.57;;;13.90;99.90;;;;;;5022231;28;20267;-71
2021/10/11 07:48:31;;;;;;;1.27;0.80;;;14.00;99.90;;;;;;5012755;28;20203;-71
2021/10/11 07:50:57;;;;;;;3.37;1.60;;;14.20;99.90;;;;;;5013998;28;20457;-71
2021/10/11 07:53:23;;;;;;;0.87;0.83;;;14.30;99.90;;;;;;5014943;28;20518;-71
2021/10/11 07:55:49;;;;;;;0.83;0.83;;;14.50;99.90;;;;;;5013479;28;20165;-71
2021/10/11 07:58:15;;;;;;;0.70;0.60;;;14.70;99.90;;;;;;5027546;28;20174;-71
2021/10/11 08:00:40;;;;;;;2.50;0.90;;;15.00;99.90;;;;;;5031887;28;20537;-71
2021/10/11 08:03:06;;;;;;;0.80;0.73;;;15.20;99.90;;;;;;5033008;28;20179;-70
2021/10/11 08:05:32;;;;;;;0.70;0.60;;;15.40;99.90;;;;;;5021414;28;20180;-70
2021/10/11 08:07:58;;;;;;;0.70;0.50;;;15.60;99.90;;;;;;5022721;28;20430;-70
2021/10/11 08:10:23;;;;;;;2.10;1.00;;;15.90;99.90;;;;;;5033218;28;20549;-71
2021/10/11 08:12:49;;;;;;;2.13;1.47;;;16.00;99.90;;;;;;5031746;28;20171;-71
2021/10/11 08:15:16;;;;;;;1.20;0.67;;;16.10;99.90;;;;;;5031805;28;20192;-71
2021/10/11 08:17:42;;;;;;;1.33;1.23;;;16.20;99.90;;;;;;5033335;28;20217;-71
2021/10/11 08:20:08;;;;;;;2.00;1.37;;;16.30;99.90;;;;;;5031720;28;20865;-72
2021/10/11 08:22:34;;;;;;;0.70;0.50;;;16.40;99.90;;;;;;5033238;28;20159;-72
2021/10/11 08:25:00;;;;;;;0.90;0.70;;;16.40;99.90;;;;;;5028706;28;20974;-71
2021/10/11 08:27:26;;;;;;;1.20;1.10;;;16.70;99.90;;;;;;5013985;28;20422;-72
2021/10/11 08:29:52;;;;;;;0.70;0.50;;;16.80;99.90;;;;;;5023722;28;20414;-71
2021/10/11 08:32:26;;;;;;;0.80;0.73;;;17.00;99.90;;;;;;5032715;28;20172;-71
2021/10/11 08:34:53;;;;;;;20.73;1.53;;;17.70;99.90;;;;;;5030744;28;20450;-72
2021/10/11 08:37:21;;;;;;;1.20;1.10;;;17.90;99.90;;;;;;5030918;28;20943;-70
2021/10/11 08:39:46;;;;;;;1.10;0.80;;;18.60;99.90;;;;;;5019769;28;20434;-71
2021/10/11 08:42:14;;;;;;;2.80;2.60;;;18.90;99.90;;;;;;5013311;28;20435;-71
2021/10/11 08:44:40;;;;;;;1.00;0.90;;;19.10;99.90;;;;;;5013958;28;20250;-71
2021/10/11 08:47:07;;;;;;;0.90;0.70;;;19.40;99.90;;;;;;5012598;28;20423;-71
2021/10/11 08:49:32;;;;;;;0.80;0.60;;;20.10;99.90;;;;;;5012874;28;20242;-72
2021/10/11 08:51:58;;;;;;;1.73;1.17;;;20.50;99.90;;;;;;5013950;28;20466;-72
2021/10/11 08:54:23;;;;;;;0.70;0.50;;;20.40;99.90;;;;;;5023280;28;20195;-72
2021/10/11 08:56:49;;;;;;;1.10;0.90;;;20.40;99.90;;;;;;5031937;28;20256;-72
2021/10/11 08:59:25;;;;;;;1.40;1.30;;;20.20;99.90;;;;;;5020936;28;20700;-71
2021/10/11 09:02:01;;;;;;;1.30;0.90;;;20.00;99.90;;;;;;5027780;28;20652;-71
2021/10/11 09:04:26;;;;;;;0.80;0.70;;;19.40;99.90;;;;;;5012501;28;20438;-70
2021/10/11 09:07:06;;;;;;;1.57;0.70;;;19.10;99.90;;;;;;5012407;28;20449;-72
2021/10/11 09:09:46;;;;;;;2.50;2.30;;;18.80;99.90;;;;;;5020049;28;20704;-71
2021/10/11 09:12:20;;;;;;;0.80;0.70;;;18.70;99.90;;;;;;5012880;28;20545;-72
2021/10/11 09:14:52;;;;;;;0.70;0.50;;;18.80;99.90;;;;;;5011438;28;21165;-72
2021/10/11 09:17:23;;;;;;;0.80;0.60;;;18.60;99.90;;;;;;5012458;28;20546;-72
2021/10/11 09:19:57;;;;;;;1.27;0.77;;;18.40;99.90;;;;;;5013471;28;20423;-72
2021/10/11 09:22:34;;;;;;;3.00;2.80;;;18.20;99.90;;;;;;5019324;28;20422;-72
2021/10/11 09:25:00;;;;;;;0.80;0.70;;;18.00;99.90;;;;;;5025934;28;20460;-72
2021/10/11 09:27:26;;;;;;;1.20;1.10;;;17.90;99.90;;;;;;5012336;28;20416;-72
2021/10/11 09:29:51;;;;;;;0.70;0.50;;;17.80;99.90;;;;;;5012298;28;20468;-72
2021/10/11 09:32:17;;;;;;;1.00;0.63;;;17.80;99.90;;;;;;5013284;28;20684;-71
2021/10/11 09:34:42;;;;;;;0.70;0.50;;;17.60;99.90;;;;;;5012146;28;20206;-71
2021/10/11 09:37:13;;;;;;;0.83;0.70;;;17.50;99.90;;;;;;5012180;28;20646;-71
2021/10/11 09:39:40;;;;;;;1.37;1.27;;;17.30;99.90;;;;;;5015816;28;20695;-72
2021/10/11 09:42:11;;;;;;;1.53;1.40;;;17.10;99.90;;;;;;5030008;28;20775;-72
2021/10/11 09:44:37;;;;;;;0.70;0.50;;;17.00;99.90;;;;;;5030518;28;20524;-72
2021/10/11 09:47:08;;;;;;;0.70;0.50;;;17.00;99.90;;;;;;5031574;28;20498;-71
2021/10/11 09:49:34;;;;;;;0.70;0.50;;;17.00;99.90;;;;;;5028405;28;20172;-71
2021/10/11 09:51:59;;;;;;;1.17;0.70;;;17.00;99.90;;;;;;5017065;28;20979;-72
2021/10/11 09:54:25;;;;;;;0.80;0.67;;;17.30;99.90;;;;;;5029444;28;20187;-72
2021/10/11 09:56:51;;;;;;;0.80;0.60;;;17.60;99.90;;;;;;5012366;28;20191;-72
2021/10/11 09:59:16;;;;;;;0.90;0.90;;;17.80;99.90;;;;;;5010643;28;20634;-71
2021/10/11 10:01:44;;;;;;;3.90;2.10;;;18.10;99.90;;;;;;5010368;28;20720;-71
2021/10/11 10:04:18;;;;;;;1.00;0.90;;;18.40;99.90;;;;;;5015124;28;20291;-72
2021/10/11 10:06:47;;;;;;;0.90;0.80;;;18.60;99.90;;;;;;5013842;28;20427;-72
2021/10/11 10:09:15;;;;;;;1.17;0.80;;;18.70;99.90;;;;;;5030891;28;20844;-72
2021/10/11 10:11:41;;;;;;;0.80;0.60;;;18.80;99.90;;;;;;5032261;28;20464;-73
2021/10/11 10:14:17;;;;;;;0.70;0.60;;;19.00;99.90;;;;;;5023637;28;20438;-72
2021/10/11 10:16:53;;;;;;;0.70;0.60;;;19.10;99.90;;;;;;5035170;28;20899;-72
2021/10/11 10:19:40;;;;;;;1.20;1.10;;;19.10;99.90;;;;;;5025823;28;20430;-72
2021/10/11 10:22:09;;;;;;;0.70;0.60;;;19.00;99.90;;;;;;5016809;28;20423;-72
2021/10/11 10:24:34;;;;;;;0.73;0.50;;;19.00;99.90;;;;;;5015447;28;20431;-71
2021/10/11 10:27:05;;;;;;;1.93;0.60;;;19.00;99.90;;;;;;5018854;28;21914;-72
2021/10/11 10:29:47;;;;;;;3.10;0.67;;;18.90;99.90;;;;;;5030659;28;20206;-71
2021/10/11 10:32:14;;;;;;;0.70;0.50;;;18.60;99.90;;;;;;5024252;28;20458;-71
2021/10/11 10:34:41;;;;;;;1.20;1.10;;;18.50;99.90;;;;;;5025919;28;20439;-72
2021/10/11 10:37:09;;;;;;;0.70;0.50;;;18.50;99.90;;;;;;5032565;28;20425;-71
2021/10/11 10:39:48;;;;;;;2.00;1.27;;;18.50;99.90;;;;;;5017799;28;20557;-71
2021/10/11 10:42:26;;;;;;;8.10;3.23;;;18.50;99.90;;;;;;5013977;28;20788;-71
2021/10/11 10:44:53;;;;;;;0.70;0.50;;;18.60;99.90;;;;;;5028472;28;20806;-72
2021/10/11 10:47:39;;;;;;;1.13;1.00;;;19.20;99.90;;;;;;5033803;28;20501;-71
2021/10/11 10:50:12;;;;;;;0.70;0.50;;;19.70;99.90;;;;;;5033664;28;20413;-72
2021/10/11 10:52:38;;;;;;;0.77;0.60;;;20.00;99.90;;;;;;5025120;28;20411;-71
2021/10/11 10:55:04;;;;;;;0.70;0.50;;;20.20;99.90;;;;;;5029543;28;20437;-72
2021/10/11 10:57:31;;;;;;;1.63;0.87;;;20.10;99.90;;;;;;5033932;28;20250;-71
2021/10/11 11:00:03;;;;;;;0.70;0.60;;;19.90;99.90;;;;;;5018877;28;20434;-70
2021/10/11 11:02:29;;;;;;;0.97;0.83;;;19.50;99.90;;;;;;5013755;28;20422;-72
2021/10/11 11:04:59;;;;;;;0.70;0.60;;;19.50;99.90;;;;;;5028182;28;20521;-71
2021/10/11 11:07:33;;;;;;;0.70;0.50;;;19.10;99.90;;;;;;5034477;28;20891;-72
2021/10/11 11:10:03;;;;;;;0.90;0.80;;;19.00;99.90;;;;;;5034507;28;20406;-72
2021/10/11 11:12:34;;;;;;;0.80;0.70;;;18.90;99.90;;;;;;5025629;28;20411;-71
2021/10/11 11:15:02;;;;;;;0.90;0.80;;;18.80;99.90;;;;;;5013137;28;20470;-71
2021/10/11 11:17:30;;;;;;;0.90;0.80;;;18.70;99.90;;;;;;5013526;28;20937;-71
2021/10/11 11:19:56;;;;;;;0.90;0.80;;;18.50;99.90;;;;;;5013286;28;20499;-71
2021/10/11 11:22:33;;;;;;;1.47;1.37;;;18.40;99.90;;;;;;5013462;28;20454;-70
2021/10/11 11:25:04;;;;;;;1.20;1.00;;;18.20;99.90;;;;;;5015575;28;20855;-71
2021/10/11 11:27:34;;;;;;;0.70;0.50;;;18.20;99.90;;;;;;5015519;28;20439;-72
2021/10/11 11:30:05;;;;;;;0.80;0.60;;;18.20;99.90;;;;;;5014277;28;20471;-72
2021/10/11 11:32:37;;;;;;;0.70;0.50;;;18.00;99.90;;;;;;5018462;28;20406;-72
2021/10/11 11:35:03;;;;;;;8.13;1.63;;;18.00;99.90;;;;;;5018081;28;20469;-72
2021/10/11 11:37:28;;;;;;;0.80;0.60;;;17.90;99.90;;;;;;5013069;28;20455;-71
2021/10/11 11:40:05;;;;;;;0.90;0.87;;;17.80;99.90;;;;;;5014490;28;20665;-71
2021/10/11 11:42:30;;;;;;;1.00;0.90;;;17.70;99.90;;;;;;5014159;28;20263;-72
2021/10/11 11:44:56;;;;;;;1.57;0.60;;;17.70;99.90;;;;;;5013247;28;20588;-70
2021/10/11 11:47:28;;;;;;;0.70;0.50;;;17.70;99.90;;;;;;5013693;28;20182;-71
2021/10/11 11:49:53;;;;;;;1.00;0.63;;;17.70;99.90;;;;;;5012808;28;20176;-71
2021/10/11 11:52:19;;;;;;;0.70;0.57;;;17.80;99.90;;;;;;5012249;28;20465;-71
2021/10/11 11:54:57;;;;;;;1.57;0.60;;;18.40;99.90;;;;;;5019692;28;20206;-71
2021/10/11 11:57:23;;;;;;;0.70;0.50;;;18.70;99.90;;;;;;5014797;28;20186;-72
2021/10/11 11:59:49;;;;;;;0.70;0.50;;;18.80;99.90;;;;;;5013674;28;20423;-71
2021/10/11 12:02:17;;;;;;;0.70;0.50;;;18.80;99.90;;;;;;5013943;28;20180;-71
2021/10/11 12:04:45;;;;;;;0.70;0.50;;;18.70;99.90;;;;;;5027520;28;20837;-71
2021/10/11 12:07:11;;;;;;;0.70;0.50;;;18.70;99.90;;;;;;5032352;28;20422;-72
2021/10/11 12:09:40;;;;;;;0.80;0.60;;;18.50;99.90;;;;;;5033377;28;20410;-71
2021/10/11 12:12:07;;;;;;;0.70;0.50;;;18.50;99.90;;;;;;5032660;28;20454;-72
2021/10/11 12:14:33;;;;;;;0.80;0.60;;;18.30;99.90;;;;;;5026848;28;20896;-72
2021/10/11 12:17:07;;;;;;;1.23;0.87;;;18.30;99.90;;;;;;5033161;28;20755;-71
2021/10/11 12:19:38;;;;;;;0.70;0.50;;;18.20;99.90;;;;;;5030408;28;20488;-72
2021/10/11 12:22:04;;;;;;;0.90;0.70;;;18.30;99.90;;;;;;5031892;28;20403;-71
2021/10/11 12:24:32;;;;;;;0.70;0.50;;;18.10;99.90;;;;;;5014548;28;20434;-72
2021/10/11 12:27:03;;;;;;;0.70;0.50;;;18.00;99.90;;;;;;5011354;28;20513;-71
2021/10/11 12:29:31;;;;;;;0.70;0.50;;;17.90;99.90;;;;;;5027590;28;20425;-72
2021/10/11 12:32:00;;;;;;;0.70;0.50;;;17.60;99.90;;;;;;5031457;28;20465;-71
2021/10/11 12:34:35;;;;;;;0.70;0.50;;;17.70;99.90;;;;;;5025708;28;20438;-71
2021/10/11 12:37:03;;;;;;;0.70;0.50;;;17.70;99.90;;;;;;5031542;28;20418;-72
2021/10/11 12:39:40;;;;;;;0.70;0.50;;;17.80;99.90;;;;;;5017945;28;20425;-72
2021/10/11 12:42:08;;;;;;;0.70;0.60;;;17.80;99.90;;;;;;5013028;28;20410;-71
2021/10/11 12:44:41;;;;;;;0.70;0.50;;;17.90;99.90;;;;;;5018610;28;20442;-71